createdAt,value
2018-04-11T00:01:22.876Z,96359.16
2018-04-11T00:03:50.391Z,96358.49
2018-04-11T00:06:18.112Z,96352.80
2018-04-11T00:08:45.772Z,96353.58
2018-04-11T00:11:13.296Z,96354.50
2018-04-11T00:13:41.092Z,96349.49
2018-04-11T00:16:08.624Z,96352.23
2018-04-11T00:18:36.162Z,96351.58
2018-04-11T00:21:03.884Z,96344.13
2018-04-11T00:23:31.404Z,96348.39
2018-04-11T00:25:58.919Z,96349.22
2018-04-11T00:28:26.864Z,96353.41
2018-04-11T00:30:54.489Z,96356.70
2018-04-11T00:33:22.095Z,96361.94
2018-04-11T00:35:49.714Z,96350.23
2018-04-11T00:38:17.401Z,96349.47
2018-04-11T00:40:44.913Z,96350.65
2018-04-11T00:43:12.492Z,96352.59
2018-04-11T00:45:40.920Z,96356.03
2018-04-11T00:48:08.428Z,96353.74
2018-04-11T00:50:36.112Z,96350.80
2018-04-11T00:53:15.598Z,96344.83
2018-04-11T00:55:43.162Z,96337.36
2018-04-11T00:58:10.680Z,96341.28
2018-04-11T01:00:38.210Z,96343.95
2018-04-11T01:03:06.100Z,96338.47
2018-04-11T01:05:33.621Z,96335.08
2018-04-11T01:08:01.133Z,96334.66
2018-04-11T01:10:28.685Z,96335.52
2018-04-11T01:12:57.305Z,96342.37
2018-04-11T01:15:24.836Z,96335.41
2018-04-11T01:17:52.579Z,96338.77
2018-04-11T01:20:20.092Z,96341.55
2018-04-11T01:22:47.633Z,96341.35
2018-04-11T01:25:15.178Z,96339.69
2018-04-11T01:27:42.859Z,96342.52
2018-04-11T01:30:10.723Z,96333.09
2018-04-11T01:32:38.267Z,96334.66
2018-04-11T01:35:05.787Z,96336.47
2018-04-11T01:37:33.303Z,96334.47
2018-04-11T01:40:01.046Z,96331.55
2018-04-11T01:42:28.834Z,96330.91
2018-04-11T01:44:56.393Z,96334.20
2018-04-11T01:47:24.211Z,96324.61
2018-04-11T01:49:51.732Z,96323.97
2018-04-11T01:52:19.250Z,96327.83
2018-04-11T01:54:46.992Z,96332.25
2018-04-11T01:57:14.520Z,96324.30
2018-04-11T01:59:42.041Z,96322.86
2018-04-11T02:02:09.630Z,96323.16
2018-04-11T02:04:37.175Z,96328.98
2018-04-11T02:07:04.699Z,96324.61
2018-04-11T02:09:32.662Z,96329.41
2018-04-11T02:12:01.081Z,96323.89
2018-04-11T02:14:28.588Z,96328.16
2018-04-11T02:16:56.133Z,96327.27
2018-04-11T02:19:23.651Z,96328.55
2018-04-11T02:21:51.657Z,96324.56
2018-04-11T02:24:19.568Z,96327.37
2018-04-11T02:26:47.357Z,96328.06
2018-04-11T02:29:14.875Z,96326.30
2018-04-11T02:31:42.473Z,96329.76
2018-04-11T02:34:09.996Z,96327.20
2018-04-11T02:36:37.516Z,96327.63
2018-04-11T02:39:05.329Z,96336.05
2018-04-11T02:41:32.862Z,96331.67
2018-04-11T02:44:00.372Z,96343.20
2018-04-11T02:46:28.201Z,96334.56
2018-04-11T02:48:55.712Z,96335.16
2018-04-11T02:51:23.236Z,96333.56
2018-04-11T02:53:50.788Z,96334.33
2018-04-11T02:56:19.196Z,96332.67
2018-04-11T02:58:46.732Z,96329.53
2018-04-11T03:01:14.289Z,96333.49
2018-04-11T03:03:41.812Z,96331.20
2018-04-11T03:06:09.345Z,96329.73
2018-04-11T03:08:36.917Z,96329.01
2018-04-11T03:11:04.425Z,96328.55
2018-04-11T03:13:31.947Z,96322.24
2018-04-11T03:15:59.555Z,96327.05
2018-04-11T03:18:27.060Z,96333.48
2018-04-11T03:20:54.568Z,96327.92
2018-04-11T03:23:22.314Z,96328.18
2018-04-11T03:25:51.682Z,96327.00
2018-04-11T03:28:19.268Z,96325.28
2018-04-11T03:30:47.179Z,96327.06
2018-04-11T03:33:14.689Z,96327.96
2018-04-11T03:35:43.179Z,96334.50
2018-04-11T03:38:10.905Z,96324.66
2018-04-11T03:40:38.465Z,96332.26
2018-04-11T03:43:06.490Z,96327.79
2018-04-11T03:45:34.224Z,96330.61
2018-04-11T03:48:01.812Z,96333.09
2018-04-11T03:50:29.339Z,96326.19
2018-04-11T03:52:57.116Z,96330.52
2018-04-11T03:55:24.617Z,96325.00
2018-04-11T03:57:52.155Z,96329.34
2018-04-11T04:00:19.890Z,96333.00
2018-04-11T04:02:47.419Z,96327.93
2018-04-11T04:05:14.931Z,96339.20
2018-04-11T04:07:42.804Z,96346.30
2018-04-11T04:10:10.329Z,96345.13
2018-04-11T04:12:38.328Z,96345.32
2018-04-11T04:15:18.600Z,96349.02
2018-04-11T04:17:57.833Z,96346.06
2018-04-11T04:20:36.518Z,96349.52
2018-04-11T04:23:04.381Z,96353.83
2018-04-11T04:25:33.002Z,96348.81
2018-04-11T04:28:00.866Z,96350.34
2018-04-11T04:30:28.373Z,96349.48
2018-04-11T04:32:56.020Z,96355.50
2018-04-11T04:35:23.725Z,96358.58
2018-04-11T04:37:51.232Z,96362.68
2018-04-11T04:40:18.745Z,96359.50
2018-04-11T04:42:46.519Z,96351.99
2018-04-11T04:45:14.194Z,96361.50
2018-04-11T04:47:41.749Z,96364.96
2018-04-11T04:50:09.297Z,96370.77
2018-04-11T04:52:36.978Z,96367.36
2018-04-11T04:55:04.500Z,96372.30
2018-04-11T04:57:32.364Z,96376.09
2018-04-11T04:59:59.888Z,96371.87
2018-04-11T05:02:27.413Z,96371.45
2018-04-11T05:04:55.141Z,96367.13
2018-04-11T05:07:22.768Z,96370.39
2018-04-11T05:09:50.545Z,96377.81
2018-04-11T05:12:18.436Z,96377.12
2018-04-11T05:14:45.948Z,96378.27
2018-04-11T05:17:13.464Z,96381.19
2018-04-11T05:19:41.220Z,96381.14
2018-04-11T05:22:09.028Z,96394.73
2018-04-11T05:24:36.553Z,96394.86
2018-04-11T05:27:04.173Z,96397.61
2018-04-11T05:29:31.706Z,96391.39
2018-04-11T05:31:59.543Z,96392.80
2018-04-11T05:34:27.300Z,96395.84
2018-04-11T05:36:54.820Z,96396.67
2018-04-11T05:39:22.338Z,96394.15
2018-04-11T05:41:50.011Z,96401.78
2018-04-11T05:44:17.531Z,96392.80
2018-04-11T05:46:45.049Z,96394.16
2018-04-11T05:49:13.399Z,96395.37
2018-04-11T05:51:40.917Z,96402.08
2018-04-11T05:54:08.436Z,96393.26
2018-04-11T05:56:36.183Z,96398.99
2018-04-11T05:59:03.692Z,96392.88
2018-04-11T06:01:31.215Z,96404.00
2018-04-11T06:03:59.144Z,96399.30
2018-04-11T06:06:26.664Z,96397.31
2018-04-11T06:08:54.180Z,96399.41
2018-04-11T06:11:22.052Z,96400.12
2018-04-11T06:13:49.766Z,96397.78
2018-04-11T06:16:18.802Z,96399.57
2018-04-11T06:18:46.364Z,96396.94
2018-04-11T06:21:14.052Z,96391.94
2018-04-11T06:23:41.894Z,96393.47
2018-04-11T06:26:09.643Z,96396.78
2018-04-11T06:28:37.606Z,96395.73
2018-04-11T06:31:05.476Z,96395.62
2018-04-11T06:33:33.850Z,96400.67
2018-04-11T06:36:04.367Z,96400.79
2018-04-11T06:38:32.348Z,96394.09
2018-04-11T06:41:01.443Z,96392.56
2018-04-11T06:43:29.618Z,96393.38
2018-04-11T06:45:57.175Z,96386.94
2018-04-11T06:48:26.052Z,96385.28
2018-04-11T06:50:53.757Z,96390.42
2018-04-11T06:53:21.700Z,96382.20
2018-04-11T06:55:49.557Z,96386.41
2018-04-11T06:58:17.467Z,96387.77
2018-04-11T07:00:45.103Z,96389.09
2018-04-11T07:03:13.101Z,96392.12
2018-04-11T07:05:40.801Z,96397.29
2018-04-11T07:08:08.902Z,96396.14
2018-04-11T07:10:37.071Z,96392.14
2018-04-11T07:13:05.756Z,96389.60
2018-04-11T07:15:33.361Z,96385.23
2018-04-11T07:18:03.853Z,96384.84
2018-04-11T07:20:31.816Z,96383.13
2018-04-11T07:23:00.044Z,96383.64
2018-04-11T07:25:28.161Z,96385.74
2018-04-11T07:27:56.000Z,96389.57
2018-04-11T07:30:24.203Z,96378.83
2018-04-11T07:32:52.324Z,96380.81
2018-04-11T07:35:20.140Z,96386.63
2018-04-11T07:37:48.619Z,96376.94
2018-04-11T07:40:16.419Z,96374.63
2018-04-11T07:42:43.921Z,96377.59
2018-04-11T07:45:11.445Z,96379.81
2018-04-11T07:47:39.000Z,96381.25
2018-04-11T07:50:06.513Z,96377.72
2018-04-11T07:52:34.032Z,96381.49
2018-04-11T07:55:01.946Z,96382.50
2018-04-11T07:57:29.627Z,96381.45
2018-04-11T07:59:57.149Z,96383.25
2018-04-11T08:02:24.722Z,96384.23
2018-04-11T08:04:52.898Z,96391.66
2018-04-11T08:07:20.449Z,96385.47
2018-04-11T08:09:48.010Z,96389.98
2018-04-11T08:12:15.533Z,96385.72
2018-04-11T08:14:43.057Z,96386.49
2018-04-11T08:17:10.977Z,96378.78
2018-04-11T08:19:38.496Z,96381.33
2018-04-11T08:22:06.081Z,96381.34
2018-04-11T08:24:33.960Z,96377.92
2018-04-11T08:27:01.472Z,96371.61
2018-04-11T08:29:29.519Z,96363.22
2018-04-11T08:31:57.265Z,96368.19
2018-04-11T08:34:24.786Z,96364.86
2018-04-11T08:36:52.308Z,96364.02
2018-04-11T08:39:20.055Z,96371.48
2018-04-11T08:41:47.572Z,96367.87
2018-04-11T08:44:15.100Z,96366.30
2018-04-11T08:46:42.920Z,96367.86
2018-04-11T08:49:10.441Z,96361.69
2018-04-11T08:51:37.958Z,96358.18
2018-04-11T08:54:05.907Z,96363.02
2018-04-11T08:56:33.437Z,96362.88
2018-04-11T08:59:00.980Z,96368.05
2018-04-11T09:01:28.824Z,96367.39
2018-04-11T09:03:56.337Z,96372.84
2018-04-11T09:06:23.851Z,96374.53
2018-04-11T09:08:51.608Z,96379.08
2018-04-11T09:11:19.121Z,96374.73
2018-04-11T09:13:46.642Z,96368.46
2018-04-11T09:16:14.209Z,96369.39
2018-04-11T09:18:41.720Z,96373.39
2018-04-11T09:21:09.282Z,96368.87
2018-04-11T09:23:36.839Z,96368.22
2018-04-11T09:26:04.387Z,96365.88
2018-04-11T09:28:31.965Z,96369.07
2018-04-11T09:30:59.701Z,96355.81
2018-04-11T09:33:27.216Z,96362.43
2018-04-11T09:35:54.738Z,96354.38
2018-04-11T09:38:22.288Z,96358.46
2018-04-11T09:40:49.796Z,96355.80
2018-04-11T09:43:17.320Z,96354.56
2018-04-11T09:45:45.063Z,96356.38
2018-04-11T09:48:12.699Z,96351.31
2018-04-11T09:50:40.207Z,96355.63
2018-04-11T09:53:08.056Z,96351.19
2018-04-11T09:55:35.581Z,96349.01
2018-04-11T09:58:03.105Z,96347.75
2018-04-11T10:00:30.752Z,96344.45
2018-04-11T10:03:03.749Z,96340.72
2018-04-11T10:05:31.472Z,96344.19
2018-04-11T10:07:58.976Z,96341.84
2018-04-11T10:10:26.516Z,96339.69
2018-04-11T10:12:54.469Z,96336.09
2018-04-11T10:15:22.857Z,96330.81
2018-04-11T10:17:50.465Z,96327.81
2018-04-11T10:20:18.496Z,96323.61
2018-04-11T10:22:46.009Z,96317.20
2018-04-11T10:25:13.515Z,96315.12
2018-04-11T10:27:41.060Z,96313.96
2018-04-11T10:30:08.568Z,96313.89
2018-04-11T10:32:36.082Z,96320.59
2018-04-11T10:35:03.827Z,96325.60
2018-04-11T10:37:31.338Z,96321.56
2018-04-11T10:39:58.874Z,96322.32
2018-04-11T10:42:26.642Z,96314.13
2018-04-11T10:44:55.112Z,96313.11
2018-04-11T10:47:22.628Z,96313.06
2018-04-11T10:49:50.180Z,96307.64
2018-04-11T10:52:17.701Z,96304.06
2018-04-11T10:54:45.215Z,96300.88
2018-04-11T10:57:13.095Z,96305.13
2018-04-11T10:59:40.612Z,96300.92
2018-04-11T11:02:08.145Z,96301.78
2018-04-11T11:04:36.281Z,96296.49
2018-04-11T11:07:03.804Z,96296.67
2018-04-11T11:09:31.318Z,96292.84
2018-04-11T11:11:58.888Z,96292.91
2018-04-11T11:14:26.405Z,96292.59
2018-04-11T11:16:53.929Z,96297.52
2018-04-11T11:19:21.738Z,96291.95
2018-04-11T11:21:49.729Z,96286.78
2018-04-11T11:24:17.369Z,96283.53
2018-04-11T11:26:45.340Z,96278.88
2018-04-11T11:29:12.849Z,96285.30
2018-04-11T11:31:40.359Z,96273.78
2018-04-11T11:34:08.335Z,96276.86
2018-04-11T11:36:35.862Z,96269.03
2018-04-11T11:39:03.378Z,96265.72
2018-04-11T11:41:31.108Z,96268.16
2018-04-11T11:43:58.623Z,96266.02
2018-04-11T11:46:26.148Z,96259.70
2018-04-11T11:48:53.857Z,96261.88
2018-04-11T11:51:21.372Z,96250.27
2018-04-11T11:53:48.946Z,96254.71
2018-04-11T11:56:16.685Z,96246.88
2018-04-11T11:58:44.195Z,96250.37
2018-04-11T12:01:11.714Z,96242.97
2018-04-11T12:03:39.269Z,96243.23
2018-04-11T12:06:06.774Z,96246.93
2018-04-11T12:08:34.345Z,96242.20
2018-04-11T12:11:02.024Z,96247.80
2018-04-11T12:13:29.544Z,96246.50
2018-04-11T12:15:57.049Z,96245.44
2018-04-11T12:18:24.823Z,96238.25
2018-04-11T12:20:52.438Z,96231.16
2018-04-11T12:23:19.953Z,96235.05
2018-04-11T12:25:47.607Z,96232.92
2018-04-11T12:28:15.108Z,96234.38
2018-04-11T12:30:42.618Z,96232.54
2018-04-11T12:33:10.164Z,96233.16
2018-04-11T12:35:37.676Z,96229.55
2018-04-11T12:38:05.187Z,96224.88
2018-04-11T12:40:33.477Z,96223.78
2018-04-11T12:43:01.004Z,96216.01
2018-04-11T12:45:28.561Z,96220.88
2018-04-11T12:47:57.380Z,96217.20
2018-04-11T12:50:24.915Z,96210.63
2018-04-11T12:52:52.754Z,96214.41
2018-04-11T12:55:20.473Z,96216.53
2018-04-11T12:57:48.026Z,96207.84
2018-04-11T13:00:15.791Z,96215.00
2018-04-11T13:02:44.050Z,96208.02
2018-04-11T13:05:11.933Z,96201.42
2018-04-11T13:07:39.586Z,96205.58
2018-04-11T13:10:07.499Z,96205.97
2018-04-11T13:12:35.319Z,96197.86
2018-04-11T13:15:02.871Z,96179.29
2018-04-11T13:17:30.960Z,96178.98
2018-04-11T13:19:58.591Z,96177.96
2018-04-11T13:22:26.487Z,96172.61
2018-04-11T13:24:54.216Z,96170.67
2018-04-11T13:27:21.737Z,96164.69
2018-04-11T13:29:49.265Z,96159.11
2018-04-11T13:32:17.337Z,96157.02
2018-04-11T13:34:45.716Z,96147.73
2018-04-11T13:37:13.296Z,96149.97
2018-04-11T13:39:41.654Z,96147.67
2018-04-11T13:42:09.200Z,96140.02
2018-04-11T13:44:36.827Z,96140.54
2018-04-11T13:47:04.433Z,96135.86
2018-04-11T13:49:31.960Z,96134.77
2018-04-11T13:51:59.964Z,96133.50
2018-04-11T13:54:27.712Z,96128.48
2018-04-11T13:56:55.252Z,96123.60
2018-04-11T13:59:22.773Z,96128.96
2018-04-11T14:01:50.610Z,96124.62
2018-04-11T14:04:18.243Z,96119.08
2018-04-11T14:06:45.848Z,96111.65
2018-04-11T14:09:14.182Z,96117.67
2018-04-11T14:11:41.928Z,96117.57
2018-04-11T14:14:09.742Z,96111.27
2018-04-11T14:16:37.810Z,96101.64
2018-04-11T14:19:05.782Z,96101.02
2018-04-11T14:21:33.507Z,96102.16
2018-04-11T14:24:01.278Z,96102.78
2018-04-11T14:26:28.969Z,96107.69
2018-04-11T14:28:56.516Z,96098.31
2018-04-11T14:31:24.395Z,96095.48
2018-04-11T14:33:52.571Z,96095.52
2018-04-11T14:36:20.334Z,96097.21
2018-04-11T14:38:48.303Z,96101.91
2018-04-11T14:41:15.929Z,96090.23
2018-04-11T14:43:44.037Z,96086.92
2018-04-11T14:46:12.002Z,96085.48
2018-04-11T14:48:39.937Z,96085.11
2018-04-11T14:51:07.742Z,96088.89
2018-04-11T14:53:35.704Z,96073.53
2018-04-11T14:56:03.539Z,96081.86
2018-04-11T14:58:31.440Z,96078.98
2018-04-11T15:00:59.408Z,96080.61
2018-04-11T15:03:27.643Z,96081.19
2018-04-11T15:05:55.317Z,96078.19
2018-04-11T15:08:23.083Z,96070.70
2018-04-11T15:10:50.667Z,96072.67
2018-04-11T15:13:18.432Z,96075.62
2018-04-11T15:15:46.810Z,96070.97
2018-04-11T15:18:14.649Z,96070.34
2018-04-11T15:20:42.956Z,96073.30
2018-04-11T15:23:11.018Z,96065.48
2018-04-11T15:25:38.634Z,96067.25
2018-04-11T15:28:06.656Z,96063.34
2018-04-11T15:30:34.221Z,96060.76
2018-04-11T15:33:02.183Z,96065.66
2018-04-11T15:35:29.932Z,96054.15
2018-04-11T15:37:57.698Z,96056.07
2018-04-11T15:40:25.374Z,96059.77
2018-04-11T15:42:53.325Z,96061.65
2018-04-11T15:45:21.264Z,96056.70
2018-04-11T15:47:48.811Z,96060.91
2018-04-11T15:50:16.736Z,96054.14
2018-04-11T15:52:44.665Z,96044.24
2018-04-11T15:55:12.983Z,96049.59
2018-04-11T15:57:41.055Z,96050.42
2018-04-11T16:00:09.235Z,96052.89
2018-04-11T16:02:38.117Z,96057.94
2018-04-11T16:05:06.805Z,96060.53
2018-04-11T16:07:35.426Z,96062.06
2018-04-11T16:10:03.460Z,96058.13
2018-04-11T16:12:31.420Z,96056.25
2018-04-11T16:14:59.755Z,96056.45
2018-04-11T16:17:28.023Z,96050.71
2018-04-11T16:19:56.871Z,96049.23
2018-04-11T16:22:24.840Z,96049.31
2018-04-11T16:24:53.537Z,96044.25
2018-04-11T16:27:22.312Z,96037.80
2018-04-11T16:29:50.694Z,96033.13
2018-04-11T16:32:18.867Z,96031.88
2018-04-11T16:34:46.684Z,96029.84
2018-04-11T16:37:14.934Z,96028.13
2018-04-11T16:39:42.755Z,96021.24
2018-04-11T16:42:10.741Z,96019.66
2018-04-11T16:44:39.605Z,96026.62
2018-04-11T16:47:07.509Z,96016.64
2018-04-11T16:49:35.476Z,96025.28
2018-04-11T16:52:03.847Z,96025.47
2018-04-11T16:54:31.974Z,96024.93
2018-04-11T16:56:59.893Z,96023.90
2018-04-11T16:59:28.288Z,96021.45
2018-04-11T17:01:56.195Z,96023.23
2018-04-11T17:04:24.615Z,96018.78
2018-04-11T17:06:52.556Z,96020.94
2018-04-11T17:11:16.141Z,96018.30
2018-04-11T17:13:45.167Z,96016.81
2018-04-11T17:16:13.366Z,96009.03
2018-04-11T17:18:41.579Z,96006.55
2018-04-11T17:21:21.451Z,96006.07
2018-04-11T17:24:01.912Z,96008.68
2018-04-11T17:26:42.272Z,96002.89
2018-04-11T17:29:22.119Z,96001.67
2018-04-11T17:31:51.384Z,95996.19
2018-04-11T17:34:19.593Z,95998.84
2018-04-11T17:36:48.281Z,95993.34
2018-04-11T17:39:16.761Z,95989.59
2018-04-11T17:41:44.751Z,95989.47
2018-04-11T17:44:12.700Z,95987.13
2018-04-11T17:46:41.079Z,95995.33
2018-04-11T17:49:09.763Z,95989.33
2018-04-11T17:51:39.575Z,95989.25
2018-04-11T17:54:08.073Z,95986.25
2018-04-11T17:56:37.251Z,95981.73
2018-04-11T17:59:05.629Z,95986.07
2018-04-11T18:01:33.704Z,95985.65
2018-04-11T18:04:01.936Z,95979.78
2018-04-11T18:06:29.846Z,95982.09
2018-04-11T18:08:59.019Z,95973.25
2018-04-11T18:11:27.712Z,95977.64
2018-04-11T18:13:55.596Z,95973.73
2018-04-11T18:16:23.878Z,95975.00
2018-04-11T18:18:52.063Z,95979.33
2018-04-11T18:21:19.912Z,95981.27
2018-04-11T18:23:48.294Z,95982.35
2018-04-11T18:26:17.182Z,95978.52
2018-04-11T18:28:45.049Z,95979.55
2018-04-11T18:31:13.329Z,95976.37
2018-04-11T18:33:41.191Z,95977.52
2018-04-11T18:36:10.596Z,95980.02
2018-04-11T18:38:38.768Z,95984.77
2018-04-11T18:41:06.840Z,95982.59
2018-04-11T18:43:35.424Z,95980.34
2018-04-11T18:46:04.275Z,95982.99
2018-04-11T18:48:32.180Z,95982.66
2018-04-11T18:51:00.251Z,95976.41
2018-04-11T18:53:29.504Z,95978.67
2018-04-11T18:55:57.523Z,95976.83
2018-04-11T18:58:25.489Z,95979.50
2018-04-11T19:00:54.207Z,95979.23
2018-04-11T19:03:22.129Z,95975.95
2018-04-11T19:05:50.013Z,95977.30
2018-04-11T19:08:18.901Z,95974.02
2018-04-11T19:10:47.304Z,95973.61
2018-04-11T19:13:15.332Z,95969.11
2018-04-11T19:15:43.505Z,95970.82
2018-04-11T19:18:11.802Z,95966.84
2018-04-11T19:20:40.079Z,95970.88
2018-04-11T19:23:08.888Z,95966.92
2018-04-11T19:25:36.938Z,95964.67
2018-04-11T19:28:04.906Z,95962.36
2018-04-11T19:30:33.157Z,95953.31
2018-04-11T19:33:01.001Z,95955.09
2018-04-11T19:35:29.328Z,95951.73
2018-04-11T19:37:57.837Z,95949.17
2018-04-11T19:40:25.773Z,95956.89
2018-04-11T19:42:54.117Z,95946.55
2018-04-11T19:45:22.742Z,95953.53
2018-04-11T19:47:50.609Z,95950.22
2018-04-11T19:50:19.390Z,95946.09
2018-04-11T19:52:47.989Z,95941.33
2018-04-11T19:55:16.353Z,95943.20
2018-04-11T19:57:44.731Z,95934.52
2018-04-11T20:00:12.905Z,95930.11
2018-04-11T20:02:41.489Z,95931.06
2018-04-11T20:05:09.356Z,95927.41
2018-04-11T20:07:37.427Z,95924.99
2018-04-11T20:10:05.294Z,95924.83
2018-04-11T20:12:33.671Z,95919.47
2018-04-11T20:15:02.412Z,95919.60
2018-04-11T20:17:30.773Z,95918.05
2018-04-11T20:19:58.808Z,95914.38
2018-04-11T20:22:26.897Z,95915.77
2018-04-11T20:24:54.950Z,95909.88
2018-04-11T20:27:23.123Z,95907.23
2018-04-11T20:29:51.197Z,95905.67
2018-04-11T20:32:19.331Z,95906.72
2018-04-11T20:34:47.439Z,95903.48
2018-04-11T20:37:15.920Z,95901.10
2018-04-11T20:39:43.787Z,95897.87
2018-04-11T20:42:12.678Z,95894.28
2018-04-11T20:44:42.083Z,95889.69
2018-04-11T20:47:10.983Z,95884.02
2018-04-11T20:49:39.929Z,95876.55
2018-04-11T20:52:08.781Z,95875.64
2018-04-11T20:54:37.240Z,95865.89
2018-04-11T20:57:05.679Z,95863.27
2018-04-11T20:59:33.844Z,95858.39
2018-04-11T21:02:01.669Z,95849.13
2018-04-11T21:04:29.931Z,95854.29
2018-04-11T21:06:58.000Z,95846.02
2018-04-11T21:09:25.866Z,95846.81
2018-04-11T21:11:53.604Z,95843.31
2018-04-11T21:14:21.501Z,95846.78
2018-04-11T21:16:49.364Z,95841.45
2018-04-11T21:19:17.140Z,95836.98
2018-04-11T21:21:45.099Z,95836.27
2018-04-11T21:24:12.967Z,95834.21
2018-04-11T21:26:41.036Z,95834.77
2018-04-11T21:29:09.312Z,95831.94
2018-04-11T21:31:37.845Z,95829.33
2018-04-11T21:34:05.556Z,95827.05
2018-04-11T21:36:33.539Z,95818.66
2018-04-11T21:39:01.792Z,95820.97
2018-04-11T21:41:29.299Z,95816.91
2018-04-11T21:43:57.133Z,95812.44
2018-04-11T21:46:24.708Z,95820.89
2018-04-11T21:48:52.434Z,95816.67
2018-04-11T21:51:20.192Z,95820.41
2018-04-11T21:53:47.782Z,95811.94
2018-04-11T21:56:15.321Z,95815.33
2018-04-11T21:58:43.504Z,95805.12
2018-04-11T22:01:11.024Z,95803.80
2018-04-11T22:03:38.540Z,95802.98
2018-04-11T22:06:06.213Z,95800.33
2018-04-11T22:08:33.720Z,95794.52
2018-04-11T22:11:01.234Z,95787.59
2018-04-11T22:13:28.932Z,95793.23
2018-04-11T22:15:56.476Z,95790.31
2018-04-11T22:18:23.992Z,95794.01
2018-04-11T22:20:52.357Z,95784.09
2018-04-11T22:23:19.884Z,95778.77
2018-04-11T22:25:47.791Z,95776.82
2018-04-11T22:28:15.527Z,95774.97
2018-04-11T22:30:43.049Z,95765.75
2018-04-11T22:33:10.555Z,95754.65
2018-04-11T22:35:38.116Z,95760.88
2018-04-11T22:38:05.996Z,95748.75
2018-04-11T22:40:33.519Z,95741.59
2018-04-11T22:43:01.417Z,95735.95
2018-04-11T22:45:28.944Z,95733.95
2018-04-11T22:47:56.495Z,95729.72
2018-04-11T22:50:24.167Z,95722.17
2018-04-11T22:52:51.684Z,95720.92
2018-04-11T22:55:19.215Z,95718.02
2018-04-11T22:57:46.954Z,95719.67
2018-04-11T23:00:14.612Z,95715.22
2018-04-11T23:02:42.120Z,95708.22
2018-04-11T23:05:09.703Z,95714.94
2018-04-11T23:07:37.236Z,95710.39
2018-04-11T23:10:05.288Z,95704.56
2018-04-11T23:12:33.031Z,95700.05
2018-04-11T23:15:00.571Z,95698.98
2018-04-11T23:17:28.105Z,95704.70
2018-04-11T23:19:56.392Z,95698.00
2018-04-11T23:22:24.671Z,95691.59
2018-04-11T23:24:52.197Z,95687.03
2018-04-11T23:27:19.925Z,95683.09
2018-04-11T23:29:47.432Z,95678.38
2018-04-11T23:32:15.063Z,95680.88
2018-04-11T23:34:43.848Z,95680.89
2018-04-11T23:37:11.364Z,95674.54
2018-04-11T23:39:38.884Z,95678.77
2018-04-11T23:42:07.161Z,95678.14
2018-04-11T23:44:34.717Z,95674.02
2018-04-11T23:47:02.752Z,95666.29
2018-04-11T23:49:30.309Z,95670.11
2018-04-11T23:51:57.832Z,95661.70
2018-04-11T23:54:25.451Z,95661.61
2018-04-11T23:56:53.299Z,95648.00
2018-04-11T23:59:20.816Z,95637.36
